createdAt,value
2022-11-06T00:00:10.243Z,9.5
2022-11-06T00:10:10.368Z,10
2022-11-06T00:20:10.244Z,10
2022-11-06T00:30:10.357Z,10
2022-11-06T00:40:10.228Z,10
2022-11-06T00:50:10.395Z,9.5
2022-11-06T01:00:10.273Z,10
2022-11-06T01:10:10.357Z,9.5
2022-11-06T01:20:10.426Z,9.5
2022-11-06T01:30:10.441Z,9.5
2022-11-06T01:40:10.422Z,9.5
2022-11-06T01:50:10.337Z,9.5
2022-11-06T02:00:10.424Z,9.5
2022-11-06T02:10:10.354Z,9.5
2022-11-06T02:20:10.449Z,9.5
2022-11-06T02:30:10.387Z,9.5
2022-11-06T02:40:10.419Z,9.5
2022-11-06T02:50:10.629Z,8.5
2022-11-06T03:00:10.417Z,8.5
2022-11-06T03:10:10.555Z,8.5
2022-11-06T03:20:10.419Z,8.5
2022-11-06T03:30:13.932Z,8.5
2022-11-06T03:40:10.440Z,8.5
2022-11-06T03:50:10.530Z,8.5
2022-11-06T04:00:10.400Z,8.5
2022-11-06T04:10:10.528Z,8.5
2022-11-06T04:20:10.597Z,8.5
2022-11-06T04:30:10.528Z,8.5
2022-11-06T04:40:10.593Z,8.5
2022-11-06T04:50:10.546Z,8.5
2022-11-06T05:00:10.622Z,8.5
2022-11-06T05:10:10.537Z,8.5
2022-11-06T05:20:10.592Z,8.5
2022-11-06T05:30:10.510Z,9
2022-11-06T05:40:10.600Z,8.5
2022-11-06T05:50:10.723Z,8.5
2022-11-06T06:00:10.600Z,8.5
2022-11-06T06:10:10.718Z,8.5
2022-11-06T06:20:10.633Z,8.5
2022-11-06T06:30:10.741Z,9
2022-11-06T06:40:10.589Z,9
2022-11-06T06:50:10.715Z,9
2022-11-06T07:00:10.600Z,9
2022-11-06T07:10:10.718Z,9
2022-11-06T07:20:10.605Z,8.5
2022-11-06T07:30:10.721Z,8.5
2022-11-06T07:40:10.807Z,8.5
2022-11-06T07:50:10.813Z,9
2022-11-06T08:00:10.627Z,9
2022-11-06T08:10:10.749Z,9
2022-11-06T08:20:10.829Z,10
2022-11-06T08:30:10.751Z,10
2022-11-06T08:40:10.825Z,10
2022-11-06T08:50:10.823Z,10
2022-11-06T09:00:10.843Z,10
2022-11-06T09:10:10.799Z,10
2022-11-06T09:20:10.828Z,11
2022-11-06T09:30:10.749Z,11
2022-11-06T09:40:10.819Z,11
2022-11-06T09:50:10.947Z,11
2022-11-06T10:00:10.838Z,11.5
2022-11-06T10:10:10.973Z,12
2022-11-06T10:20:10.852Z,11.5
2022-11-06T10:30:11.370Z,12
2022-11-06T10:40:10.830Z,13
2022-11-06T10:50:10.951Z,13
2022-11-06T11:00:10.957Z,13
2022-11-06T11:10:10.935Z,13
2022-11-06T11:20:11.011Z,13
2022-11-06T11:30:10.933Z,13
2022-11-06T11:40:13.408Z,13
2022-11-06T11:50:10.979Z,13
2022-11-06T12:00:11.039Z,13
2022-11-06T12:10:11.798Z,13
2022-11-06T12:20:10.999Z,13
2022-11-06T12:30:11.058Z,13
2022-11-06T12:40:10.994Z,13
2022-11-06T12:50:11.117Z,13
2022-11-06T13:00:10.992Z,13
2022-11-06T13:10:11.143Z,14
2022-11-06T13:20:10.982Z,13.5
2022-11-06T13:30:11.147Z,13.5
2022-11-06T13:40:11.109Z,13.5
2022-11-06T13:50:11.155Z,13.5
2022-11-06T14:00:11.236Z,13
2022-11-06T14:10:11.147Z,14
2022-11-06T14:20:11.013Z,14
2022-11-06T14:30:11.172Z,14
2022-11-06T14:40:11.041Z,14
2022-11-06T14:50:11.245Z,14
2022-11-06T15:10:11.227Z,13.5
2022-11-06T15:20:11.227Z,13.5
2022-11-06T16:00:11.349Z,13
2022-11-06T16:20:11.257Z,13
2022-11-06T16:30:11.326Z,13
2022-11-06T16:40:11.270Z,12.5
2022-11-06T16:50:11.337Z,12.5
2022-11-06T17:00:11.274Z,12.5
2022-11-06T17:10:11.384Z,12.5
2022-11-06T17:20:11.238Z,11.5
2022-11-06T17:30:11.337Z,11.5
2022-11-06T17:40:11.319Z,11.5
2022-11-06T17:50:11.313Z,12
2022-11-06T18:00:11.439Z,12
2022-11-06T18:10:11.304Z,12
2022-11-06T18:20:11.427Z,12
2022-11-06T18:30:11.334Z,12
2022-11-06T18:40:11.460Z,11.5
2022-11-06T18:50:11.390Z,11.5
2022-11-06T19:00:11.424Z,11.5
2022-11-06T19:10:11.354Z,11.5
2022-11-06T19:20:13.718Z,11.5
2022-11-06T19:30:11.365Z,11.5
2022-11-06T19:40:11.605Z,11.5
2022-11-06T19:50:11.362Z,12
2022-11-06T20:00:11.697Z,12
2022-11-06T20:10:11.992Z,11.5
2022-11-06T20:20:11.477Z,11.5
2022-11-06T20:30:11.559Z,11.5
2022-11-06T20:40:11.503Z,11.5
2022-11-06T20:50:11.568Z,11.5
2022-11-06T21:00:11.477Z,11.5
2022-11-06T21:10:11.624Z,11.5
2022-11-06T21:20:11.628Z,11.5
2022-11-06T21:30:11.596Z,11.5
2022-11-06T21:40:11.635Z,11.5
2022-11-06T21:50:11.554Z,11.5
2022-11-06T22:00:14.238Z,11.5
2022-11-06T22:10:11.559Z,11.5
2022-11-06T22:20:11.767Z,11.5
2022-11-06T22:30:11.542Z,11.5
2022-11-06T22:40:11.666Z,11.5
2022-11-06T22:50:11.550Z,11.5
2022-11-06T23:00:11.717Z,11.5
2022-11-06T23:10:11.549Z,11.5
2022-11-06T23:20:11.964Z,11.5
2022-11-06T23:30:11.544Z,11.5
2022-11-06T23:40:11.683Z,11.5
2022-11-06T23:50:11.945Z,11.5
